createdAt,value
2024-05-09T00:01:08.259Z,5.23
2024-05-09T00:03:38.556Z,5.90
2024-05-09T00:06:12.815Z,6.13
2024-05-09T00:08:42.949Z,5.00
2024-05-09T00:11:13.270Z,5.10
2024-05-09T00:13:43.463Z,5.53
2024-05-09T00:16:13.638Z,5.23
2024-05-09T00:18:43.880Z,4.87
2024-05-09T00:21:16.856Z,4.77
2024-05-09T00:23:47.316Z,5.40
2024-05-09T00:26:19.185Z,4.57
2024-05-09T00:28:49.382Z,4.77
2024-05-09T00:31:19.557Z,4.87
2024-05-09T00:33:49.827Z,4.67
2024-05-09T00:36:22.737Z,4.57
2024-05-09T00:38:53.231Z,4.90
2024-05-09T00:41:23.369Z,4.83
2024-05-09T00:43:53.632Z,5.53
2024-05-09T00:46:23.717Z,4.77
2024-05-09T00:48:53.922Z,5.20
2024-05-09T00:51:26.762Z,4.60
2024-05-09T00:53:56.880Z,4.67
2024-05-09T00:56:27.141Z,4.13
2024-05-09T00:58:57.413Z,5.23
2024-05-09T01:01:27.902Z,4.00
2024-05-09T01:03:58.197Z,4.80
2024-05-09T01:06:31.436Z,4.47
2024-05-09T01:09:01.521Z,4.50
2024-05-09T01:11:36.710Z,4.63
2024-05-09T01:14:06.906Z,4.53
2024-05-09T01:16:37.056Z,4.43
2024-05-09T01:19:07.833Z,5.40
2024-05-09T01:21:43.263Z,4.50
2024-05-09T01:24:16.064Z,4.27
2024-05-09T01:26:46.166Z,4.43
2024-05-09T01:29:16.436Z,4.07
2024-05-09T01:31:48.069Z,4.60
2024-05-09T01:34:18.684Z,4.13
2024-05-09T01:36:48.808Z,4.37
2024-05-09T01:39:21.727Z,4.00
2024-05-09T01:41:51.816Z,4.30
2024-05-09T01:44:21.969Z,3.90
2024-05-09T01:46:52.525Z,4.13
2024-05-09T01:49:22.831Z,4.17
2024-05-09T01:51:53.048Z,4.27
2024-05-09T01:54:25.811Z,4.20
2024-05-09T01:56:56.170Z,4.90
2024-05-09T01:59:26.464Z,4.03
2024-05-09T02:01:57.906Z,3.63
2024-05-09T02:04:28.415Z,4.43
2024-05-09T02:06:58.570Z,3.73
2024-05-09T02:09:31.328Z,4.43
2024-05-09T02:12:01.582Z,4.10
2024-05-09T02:14:32.335Z,4.27
2024-05-09T02:17:02.539Z,4.10
2024-05-09T02:19:33.002Z,4.27
2024-05-09T02:22:03.214Z,3.80
2024-05-09T02:24:35.973Z,4.17
2024-05-09T02:27:06.674Z,4.30
2024-05-09T02:29:37.621Z,3.87
2024-05-09T02:32:08.582Z,4.37
2024-05-09T02:34:39.069Z,4.00
2024-05-09T02:37:09.203Z,3.97
2024-05-09T02:39:39.312Z,3.60
2024-05-09T02:42:09.427Z,3.90
2024-05-09T02:44:36.981Z,3.97
2024-05-09T02:47:07.601Z,4.13
2024-05-09T02:49:35.253Z,4.33
2024-05-09T02:52:05.518Z,4.60
2024-05-09T02:54:32.961Z,4.53
2024-05-09T02:57:05.818Z,3.93
2024-05-09T02:59:33.466Z,4.07
2024-05-09T03:02:03.705Z,4.40
2024-05-09T03:04:31.486Z,4.30
2024-05-09T03:07:01.746Z,4.23
2024-05-09T03:09:29.366Z,4.13
2024-05-09T03:11:59.658Z,4.20
2024-05-09T03:14:30.018Z,3.60
2024-05-09T03:17:00.265Z,4.00
2024-05-09T03:19:27.807Z,4.57
2024-05-09T03:21:58.383Z,3.80
2024-05-09T03:24:25.816Z,3.87
2024-05-09T03:26:56.031Z,4.10
2024-05-09T03:29:23.618Z,4.20
2024-05-09T03:31:56.491Z,4.03
2024-05-09T03:34:23.997Z,3.83
2024-05-09T03:36:54.196Z,3.80
2024-05-09T03:39:24.325Z,4.20
2024-05-09T03:41:54.444Z,4.10
2024-05-09T03:44:24.662Z,4.53
2024-05-09T03:46:55.771Z,3.87
2024-05-09T03:49:26.246Z,4.17
2024-05-09T03:51:53.869Z,4.03
2024-05-09T03:54:24.902Z,4.10
2024-05-09T03:56:52.761Z,3.90
2024-05-09T03:59:22.923Z,4.00
2024-05-09T04:01:50.629Z,3.80
2024-05-09T04:04:24.463Z,4.30
2024-05-09T04:06:51.959Z,3.90
2024-05-09T04:09:22.090Z,4.30
2024-05-09T04:11:49.716Z,3.67
2024-05-09T04:14:20.394Z,3.90
2024-05-09T04:16:48.027Z,4.10
2024-05-09T04:19:18.597Z,4.57
2024-05-09T04:21:48.850Z,4.13
2024-05-09T04:24:19.009Z,4.50
2024-05-09T04:26:46.573Z,4.20
2024-05-09T04:29:16.759Z,4.03
2024-05-09T04:31:44.629Z,4.93
2024-05-09T04:34:14.940Z,3.73
2024-05-09T04:36:44.449Z,4.37
2024-05-09T04:39:17.584Z,4.43
2024-05-09T04:41:45.066Z,4.20
2024-05-09T04:44:15.339Z,4.00
2024-05-09T04:46:43.858Z,4.60
2024-05-09T04:49:14.244Z,4.30
2024-05-09T04:51:41.989Z,5.00
2024-05-09T04:54:22.226Z,5.07
2024-05-09T04:57:00.225Z,4.37
2024-05-09T04:59:30.841Z,4.80
2024-05-09T05:01:58.458Z,4.40
2024-05-09T05:04:28.681Z,4.63
2024-05-09T05:06:57.726Z,5.50
2024-05-09T05:09:29.121Z,5.37
2024-05-09T05:11:56.708Z,5.33
2024-05-09T05:14:30.204Z,5.47
2024-05-09T05:17:00.356Z,4.97
2024-05-09T05:19:28.131Z,5.23
2024-05-09T05:21:58.280Z,6.07
2024-05-09T05:24:25.701Z,4.97
2024-05-09T05:26:55.767Z,5.10
2024-05-09T05:29:23.648Z,4.90
2024-05-09T05:31:56.539Z,4.80
2024-05-09T05:34:24.110Z,5.00
2024-05-09T05:36:54.263Z,5.20
2024-05-09T05:39:21.712Z,5.20
2024-05-09T05:41:52.274Z,5.40
2024-05-09T05:44:19.763Z,5.50
2024-05-09T05:46:51.030Z,5.73
2024-05-09T05:49:21.375Z,6.07
2024-05-09T05:51:51.597Z,6.00
2024-05-09T05:54:19.035Z,6.00
2024-05-09T05:56:49.527Z,5.73
2024-05-09T05:59:17.077Z,5.80
2024-05-09T06:01:47.782Z,5.90
2024-05-09T06:04:15.411Z,6.70
2024-05-09T06:06:48.299Z,5.87
2024-05-09T06:09:16.236Z,5.73
2024-05-09T06:11:46.501Z,5.60
2024-05-09T06:14:14.179Z,4.47
2024-05-09T06:16:44.365Z,5.07
2024-05-09T06:19:12.088Z,4.63
2024-05-09T06:21:42.315Z,4.63
2024-05-09T06:24:12.370Z,5.17
2024-05-09T06:26:44.851Z,4.23
2024-05-09T06:29:14.211Z,4.37
2024-05-09T06:31:46.439Z,4.50
2024-05-09T06:34:13.948Z,4.30
2024-05-09T06:36:44.626Z,4.97
2024-05-09T06:39:14.768Z,4.20
2024-05-09T06:41:44.953Z,4.13
2024-05-09T06:44:12.403Z,4.50
2024-05-09T06:46:42.621Z,4.50
2024-05-09T06:49:11.704Z,4.90
2024-05-09T06:51:42.971Z,5.20
2024-05-09T06:54:10.456Z,6.00
2024-05-09T06:56:43.246Z,5.43
2024-05-09T06:59:10.821Z,5.60
2024-05-09T07:01:40.977Z,5.30
2024-05-09T07:04:09.101Z,5.07
2024-05-09T07:06:39.384Z,5.47
2024-05-09T07:09:06.865Z,5.17
2024-05-09T07:11:38.250Z,5.10
2024-05-09T07:14:08.426Z,5.27
2024-05-09T07:16:38.573Z,4.70
2024-05-09T07:19:07.035Z,5.10
2024-05-09T07:21:37.243Z,5.00
2024-05-09T07:24:05.315Z,5.37
2024-05-09T07:26:35.481Z,4.90
2024-05-09T07:29:03.034Z,4.83
2024-05-09T07:31:36.115Z,4.67
2024-05-09T07:34:03.761Z,4.70
2024-05-09T07:36:33.996Z,4.87
2024-05-09T07:39:01.458Z,4.60
2024-05-09T07:41:31.838Z,4.47
2024-05-09T07:43:59.510Z,4.20
2024-05-09T07:47:36.961Z,3.87
2024-05-09T07:53:21.122Z,4.33
2024-05-09T07:54:40.795Z,4.10
2024-05-09T07:57:11.069Z,4.17
2024-05-09T07:59:39.212Z,3.60
2024-05-09T08:02:09.788Z,3.27
2024-05-09T08:04:40.107Z,3.43
2024-05-09T08:07:10.361Z,2.77
2024-05-09T08:09:39.991Z,2.80
2024-05-09T08:12:12.915Z,2.70
2024-05-09T08:14:40.352Z,2.50
2024-05-09T08:17:12.258Z,2.40
2024-05-09T08:19:42.707Z,2.80
2024-05-09T08:22:12.941Z,2.70
2024-05-09T08:24:40.408Z,2.63
2024-05-09T08:27:10.899Z,2.63
2024-05-09T08:29:38.406Z,2.60
2024-05-09T08:32:12.684Z,2.43
2024-05-09T08:34:43.125Z,2.63
2024-05-09T08:37:21.162Z,2.50
2024-05-09T08:39:51.086Z,2.53
2024-05-09T08:42:21.344Z,2.60
2024-05-09T08:44:48.895Z,3.10
2024-05-09T08:47:19.104Z,2.70
2024-05-09T08:49:49.343Z,3.03
2024-05-09T08:52:19.643Z,2.90
2024-05-09T08:54:47.524Z,2.50
2024-05-09T08:57:17.767Z,2.60
2024-05-09T08:59:47.535Z,3.07
2024-05-09T09:02:17.795Z,3.10
2024-05-09T09:04:51.573Z,2.50
2024-05-09T09:07:22.362Z,3.00
2024-05-09T09:09:50.343Z,2.77
2024-05-09T09:12:22.052Z,2.67
2024-05-09T09:14:49.511Z,2.60
2024-05-09T09:17:19.964Z,2.57
2024-05-09T09:19:50.156Z,2.50
2024-05-09T09:22:21.782Z,2.30
2024-05-09T09:24:49.473Z,2.33
2024-05-09T09:27:19.561Z,3.00
2024-05-09T09:29:47.084Z,2.53
2024-05-09T09:32:17.211Z,2.70
2024-05-09T09:34:45.157Z,2.90
2024-05-09T09:37:18.082Z,2.57
2024-05-09T09:39:48.866Z,2.30
2024-05-09T09:42:19.513Z,2.80
2024-05-09T09:44:54.604Z,2.43
2024-05-09T09:47:31.767Z,2.80
2024-05-09T09:49:59.771Z,2.43
2024-05-09T09:52:32.710Z,2.87
2024-05-09T09:55:00.228Z,2.57
2024-05-09T09:57:30.691Z,2.53
2024-05-09T09:59:58.249Z,2.73
2024-05-09T10:02:28.813Z,2.37
2024-05-09T10:04:56.444Z,2.73
2024-05-09T10:07:27.701Z,2.57
2024-05-09T10:09:58.310Z,2.53
2024-05-09T10:12:28.441Z,2.37
2024-05-09T10:14:56.763Z,2.40
2024-05-09T10:17:27.006Z,2.40
2024-05-09T10:20:11.820Z,2.13
2024-05-09T10:22:51.426Z,2.40
2024-05-09T10:25:23.750Z,2.67
2024-05-09T10:27:57.902Z,2.50
2024-05-09T10:30:33.837Z,2.43
2024-05-09T10:33:06.297Z,2.83
2024-05-09T10:35:33.893Z,2.47
2024-05-09T10:38:09.009Z,2.97
2024-05-09T10:40:39.392Z,2.30
2024-05-09T10:43:09.544Z,2.27
2024-05-09T10:45:37.092Z,2.30
2024-05-09T10:48:07.827Z,2.53
2024-05-09T10:50:35.432Z,2.50
2024-05-09T10:53:05.932Z,2.53
2024-05-09T10:55:34.831Z,2.43
2024-05-09T10:58:07.964Z,2.37
2024-05-09T11:00:36.904Z,2.73
2024-05-09T11:03:07.627Z,2.10
2024-05-09T11:05:35.421Z,2.37
2024-05-09T11:08:05.618Z,2.50
2024-05-09T11:10:34.428Z,2.40
2024-05-09T11:13:07.977Z,2.57
2024-05-09T11:15:39.555Z,2.40
2024-05-09T11:18:09.901Z,2.00
2024-05-09T11:20:37.601Z,2.47
2024-05-09T11:23:08.537Z,2.60
2024-05-09T11:25:37.182Z,2.57
2024-05-09T11:28:10.532Z,2.30
2024-05-09T11:30:38.037Z,2.40
2024-05-09T11:33:08.770Z,2.23
2024-05-09T11:35:36.223Z,2.50
2024-05-09T11:38:07.068Z,2.33
2024-05-09T11:40:34.910Z,2.70
2024-05-09T11:43:05.190Z,2.30
2024-05-09T11:45:35.507Z,2.50
2024-05-09T11:48:06.790Z,2.10
2024-05-09T11:50:37.664Z,2.30
2024-05-09T11:53:05.490Z,2.50
2024-05-09T11:55:36.862Z,2.40
2024-05-09T11:58:05.382Z,2.37
2024-05-09T12:00:38.342Z,2.50
2024-05-09T12:03:06.440Z,2.33
2024-05-09T12:05:36.816Z,2.60
2024-05-09T12:08:04.792Z,2.20
2024-05-09T12:10:36.330Z,2.30
2024-05-09T12:13:06.426Z,2.50
2024-05-09T12:15:40.989Z,2.50
2024-05-09T12:18:09.098Z,2.10
2024-05-09T12:20:40.293Z,2.50
2024-05-09T12:23:09.972Z,2.50
2024-05-09T12:25:40.768Z,2.63
2024-05-09T12:28:08.396Z,2.23
2024-05-09T12:30:41.945Z,2.43
2024-05-09T12:33:10.788Z,2.20
2024-05-09T12:35:44.295Z,2.40
2024-05-09T12:38:14.674Z,2.40
2024-05-09T12:40:45.251Z,2.50
2024-05-09T12:43:13.215Z,3.10
2024-05-09T12:45:46.078Z,2.40
2024-05-09T12:48:13.676Z,2.70
2024-05-09T12:50:44.123Z,2.43
2024-05-09T12:53:11.754Z,2.80
2024-05-09T12:55:48.977Z,2.30
2024-05-09T12:58:24.669Z,2.63
2024-05-09T13:00:57.604Z,2.90
2024-05-09T13:03:25.264Z,2.37
2024-05-09T13:05:55.447Z,2.87
2024-05-09T13:08:22.931Z,2.93
2024-05-09T13:10:53.222Z,2.60
2024-05-09T13:13:21.140Z,3.10
2024-05-09T13:15:51.310Z,3.03
2024-05-09T13:18:21.458Z,2.70
2024-05-09T13:20:51.585Z,2.70
2024-05-09T13:23:19.006Z,2.60
2024-05-09T13:25:49.459Z,2.63
2024-05-09T13:28:17.119Z,2.60
2024-05-09T13:30:47.437Z,2.50
2024-05-09T13:33:15.142Z,2.23
2024-05-09T13:35:50.554Z,2.90
2024-05-09T13:38:19.252Z,2.73
2024-05-09T13:40:50.420Z,3.17
2024-05-09T13:43:18.684Z,2.67
2024-05-09T13:45:49.020Z,2.87
2024-05-09T13:48:16.665Z,2.47
2024-05-09T13:50:49.449Z,2.43
2024-05-09T13:53:18.309Z,2.40
2024-05-09T13:55:48.426Z,2.50
2024-05-09T13:58:15.961Z,2.77
2024-05-09T14:00:48.845Z,2.90
2024-05-09T14:03:18.786Z,3.43
2024-05-09T14:05:53.407Z,2.50
2024-05-09T14:08:22.546Z,2.63
2024-05-09T14:10:53.885Z,2.63
2024-05-09T14:13:21.833Z,2.60
2024-05-09T14:15:52.239Z,2.67
2024-05-09T14:18:19.906Z,2.50
2024-05-09T14:20:53.068Z,2.70
2024-05-09T14:23:20.553Z,2.93
2024-05-09T14:25:53.152Z,2.50
2024-05-09T14:28:21.265Z,2.47
2024-05-09T14:30:51.553Z,2.50
2024-05-09T14:33:25.547Z,2.77
2024-05-09T14:35:59.677Z,2.33
2024-05-09T14:38:27.435Z,2.87
2024-05-09T14:40:57.642Z,2.60
2024-05-09T14:43:25.386Z,2.47
2024-05-09T14:45:56.124Z,2.53
2024-05-09T14:48:24.259Z,2.43
2024-05-09T14:50:54.682Z,2.63
2024-05-09T14:53:26.668Z,2.70
2024-05-09T14:55:59.540Z,2.77
2024-05-09T14:58:27.043Z,2.27
2024-05-09T15:00:57.738Z,2.27
2024-05-09T15:03:25.280Z,2.67
2024-05-09T15:05:55.764Z,2.80
2024-05-09T15:08:25.984Z,2.50
2024-05-09T15:10:56.280Z,2.57
2024-05-09T15:13:25.107Z,2.63
2024-05-09T15:15:56.118Z,2.90
2024-05-09T15:18:23.842Z,2.23
2024-05-09T15:20:54.013Z,2.30
2024-05-09T15:23:21.438Z,2.40
2024-05-09T15:25:54.275Z,2.30
2024-05-09T15:28:22.192Z,2.40
2024-05-09T15:30:52.441Z,2.37
2024-05-09T15:33:19.909Z,2.20
2024-05-09T15:35:50.037Z,2.50
2024-05-09T15:38:18.639Z,2.40
2024-05-09T15:40:49.039Z,2.70
2024-05-09T15:43:19.299Z,2.70
2024-05-09T15:45:49.548Z,2.60
2024-05-09T15:48:17.096Z,2.50
2024-05-09T15:50:47.490Z,2.37
2024-05-09T15:53:15.174Z,2.53
2024-05-09T15:55:45.760Z,2.13
2024-05-09T15:58:13.394Z,2.67
2024-05-09T16:00:48.747Z,2.57
2024-05-09T16:03:18.062Z,2.50
2024-05-09T16:05:48.742Z,2.30
2024-05-09T16:08:16.766Z,2.80
2024-05-09T16:10:48.277Z,2.60
2024-05-09T16:13:20.254Z,2.27
2024-05-09T16:15:54.810Z,2.73
2024-05-09T16:18:23.137Z,2.43
2024-05-09T16:20:59.977Z,2.13
2024-05-09T16:23:27.734Z,2.50
2024-05-09T16:25:57.981Z,2.33
2024-05-09T16:28:27.013Z,2.50
2024-05-09T16:31:01.645Z,2.47
2024-05-09T16:33:29.586Z,2.43
2024-05-09T16:36:01.064Z,2.60
2024-05-09T16:38:29.222Z,2.20
2024-05-09T16:41:01.325Z,2.30
2024-05-09T16:43:30.996Z,2.33
2024-05-09T16:46:06.628Z,2.40
2024-05-09T16:48:34.586Z,2.40
2024-05-09T16:51:05.409Z,2.50
2024-05-09T16:53:33.335Z,2.23
2024-05-09T16:56:04.056Z,2.70
2024-05-09T16:58:32.565Z,2.40
2024-05-09T17:01:05.985Z,2.40
2024-05-09T17:03:34.560Z,2.30
2024-05-09T17:06:05.871Z,2.17
2024-05-09T17:08:33.332Z,2.80
2024-05-09T17:11:03.589Z,2.40
2024-05-09T17:13:34.091Z,2.50
2024-05-09T17:16:07.679Z,2.63
2024-05-09T17:18:38.299Z,2.57
2024-05-09T17:21:09.207Z,2.20
2024-05-09T17:23:36.706Z,2.53
2024-05-09T17:26:06.885Z,2.20
2024-05-09T17:28:34.434Z,2.10
2024-05-09T17:31:07.579Z,2.17
2024-05-09T17:33:35.744Z,2.57
2024-05-09T17:36:06.136Z,2.30
2024-05-09T17:38:33.579Z,2.40
2024-05-09T17:41:03.775Z,2.13
2024-05-09T17:43:31.434Z,2.70
2024-05-09T17:46:02.236Z,2.30
2024-05-09T17:48:32.535Z,2.07
2024-05-09T17:51:03.003Z,2.53
2024-05-09T17:53:30.432Z,2.40
2024-05-09T17:56:01.625Z,2.50
2024-05-09T17:58:29.763Z,2.37
2024-05-09T18:01:00.101Z,2.60
2024-05-09T18:03:27.858Z,1.90
2024-05-09T18:06:00.753Z,2.70
2024-05-09T18:08:28.254Z,2.30
2024-05-09T18:10:58.729Z,2.90
2024-05-09T18:13:29.159Z,2.63
2024-05-09T18:15:59.325Z,2.80
2024-05-09T18:18:26.999Z,3.27
2024-05-09T18:20:57.181Z,2.87
2024-05-09T18:23:27.352Z,2.60
2024-05-09T18:25:57.886Z,2.33
2024-05-09T18:28:25.660Z,2.93
2024-05-09T18:30:55.931Z,2.90
2024-05-09T18:33:24.510Z,2.90
2024-05-09T18:35:55.068Z,3.40
2024-05-09T18:38:25.697Z,3.13
2024-05-09T18:40:58.567Z,3.27
2024-05-09T18:43:31.325Z,2.60
2024-05-09T18:46:08.578Z,2.77
2024-05-09T18:48:36.187Z,2.83
2024-05-09T18:51:06.581Z,3.40
2024-05-09T18:53:34.053Z,3.60
2024-05-09T18:56:07.249Z,2.97
2024-05-09T18:58:34.651Z,2.93
2024-05-09T19:01:05.018Z,2.60
2024-05-09T19:03:32.948Z,2.60
2024-05-09T19:06:03.442Z,3.10
2024-05-09T19:08:31.372Z,3.30
2024-05-09T19:11:02.141Z,3.13
2024-05-09T19:13:32.611Z,3.30
2024-05-09T19:16:03.415Z,2.70
2024-05-09T19:18:31.318Z,2.67
2024-05-09T19:21:01.723Z,3.03
2024-05-09T19:23:32.495Z,3.00
2024-05-09T19:26:03.234Z,3.30
2024-05-09T19:28:33.328Z,3.10
2024-05-09T19:31:03.615Z,3.47
2024-05-09T19:33:32.213Z,3.10
2024-05-09T19:36:02.956Z,2.93
2024-05-09T19:38:30.382Z,2.90
2024-05-09T19:41:00.694Z,3.20
2024-05-09T19:43:28.695Z,3.00
2024-05-09T19:46:02.047Z,3.30
2024-05-09T19:48:29.710Z,3.60
2024-05-09T19:51:00.343Z,3.00
2024-05-09T19:53:27.759Z,3.20
2024-05-09T19:55:58.016Z,3.20
2024-05-09T19:58:25.794Z,3.13
2024-05-09T20:00:56.148Z,3.07
2024-05-09T20:03:26.378Z,3.03
2024-05-09T20:05:56.552Z,3.40
2024-05-09T20:08:24.031Z,3.07
2024-05-09T20:10:54.174Z,2.77
2024-05-09T20:13:21.843Z,3.20
2024-05-09T20:15:52.260Z,2.87
2024-05-09T20:18:20.194Z,3.27
2024-05-09T20:20:54.080Z,3.20
2024-05-09T20:23:21.829Z,3.53
2024-05-09T20:25:51.913Z,3.37
2024-05-09T20:28:19.451Z,3.30
2024-05-09T20:30:49.723Z,3.80
2024-05-09T20:33:17.531Z,4.17
2024-05-09T20:35:47.700Z,4.40
2024-05-09T20:38:17.791Z,4.03
2024-05-09T20:40:48.134Z,4.00
2024-05-09T20:43:15.794Z,3.80
2024-05-09T20:45:46.322Z,4.40
2024-05-09T20:48:14.076Z,4.40
2024-05-09T20:50:44.495Z,4.00
2024-05-09T20:53:13.419Z,4.33
2024-05-09T20:55:47.407Z,4.17
2024-05-09T20:58:15.045Z,4.73
2024-05-09T21:00:46.660Z,4.20
2024-05-09T21:03:15.954Z,4.50
2024-05-09T21:05:47.787Z,4.70
2024-05-09T21:08:15.822Z,4.90
2024-05-09T21:10:48.732Z,4.77
2024-05-09T21:13:16.745Z,4.57
2024-05-09T21:15:47.047Z,4.80
2024-05-09T21:18:14.679Z,4.67
2024-05-09T21:20:44.882Z,4.90
2024-05-09T21:23:12.311Z,4.77
2024-05-09T21:25:43.021Z,5.43
2024-05-09T21:28:14.917Z,5.20
2024-05-09T21:30:45.174Z,5.40
2024-05-09T21:33:14.231Z,5.63
2024-05-09T21:35:45.523Z,5.57
2024-05-09T21:38:14.234Z,5.63
2024-05-09T21:40:45.668Z,6.03
2024-05-09T21:43:16.034Z,5.53
2024-05-09T21:45:46.212Z,6.43
2024-05-09T21:48:13.896Z,6.03
2024-05-09T21:50:44.608Z,5.70
2024-05-09T21:53:13.210Z,5.63
2024-05-09T21:55:44.360Z,5.73
2024-05-09T21:58:12.270Z,6.37
2024-05-09T22:00:46.577Z,5.93
2024-05-09T22:03:14.641Z,5.80
2024-05-09T22:05:45.360Z,6.20
2024-05-09T22:08:13.562Z,6.50
2024-05-09T22:10:43.873Z,6.13
2024-05-09T22:13:11.492Z,6.13
2024-05-09T22:15:44.813Z,6.00
2024-05-09T22:18:12.543Z,6.50
2024-05-09T22:20:45.805Z,6.93
2024-05-09T22:23:14.839Z,6.30
2024-05-09T22:25:45.232Z,6.27
2024-05-09T22:28:14.147Z,6.50
2024-05-09T22:30:47.706Z,6.70
2024-05-09T22:33:15.997Z,6.20
2024-05-09T22:35:47.642Z,6.30
2024-05-09T22:38:15.222Z,6.10
2024-05-09T22:40:48.666Z,7.07
2024-05-09T22:43:22.180Z,6.10
2024-05-09T22:45:58.000Z,6.30
2024-05-09T22:48:26.009Z,6.23
2024-05-09T22:50:56.319Z,6.27
2024-05-09T22:53:24.942Z,6.57
2024-05-09T22:55:55.361Z,6.63
2024-05-09T22:58:23.395Z,6.47
2024-05-09T23:00:54.055Z,5.90
2024-05-09T23:03:24.840Z,6.13
2024-05-09T23:05:55.123Z,6.03
2024-05-09T23:08:22.527Z,6.03
2024-05-09T23:10:52.731Z,6.03
2024-05-09T23:13:20.450Z,6.03
2024-05-09T23:15:51.278Z,5.43
2024-05-09T23:18:19.011Z,5.47
2024-05-09T23:20:52.089Z,6.77
2024-05-09T23:23:19.732Z,6.20
2024-05-09T23:25:49.936Z,5.83
2024-05-09T23:28:17.552Z,5.67
2024-05-09T23:30:47.645Z,5.70
2024-05-09T23:33:15.365Z,5.80
2024-05-09T23:35:45.698Z,5.47
2024-05-09T23:38:15.886Z,5.93
2024-05-09T23:40:46.121Z,6.10
2024-05-09T23:43:14.332Z,5.70
2024-05-09T23:45:44.673Z,5.43
2024-05-09T23:48:12.298Z,5.40
2024-05-09T23:50:42.617Z,5.43
2024-05-09T23:53:10.944Z,5.30
2024-05-09T23:55:44.218Z,6.10
2024-05-09T23:58:12.207Z,5.33
